Time;durP1;ratioP1;P1;durP2;ratioP2;P2;SDS_P1;SDS_P2;PMS_P1;PMS_P2;Temp;Humidity;BMP_temperature;BMP_pressure;BME280_temperature;BME280_humidity;BME280_pressure;Samples;Min_cycle;Max_cycle;Signal;HPM_P1;HPM_P2
2022/07/21 00:00:25;;;;;;;12.82;11.48;;;;;;;20.19;nan;101616.25;5051824;28;20060;-70
2022/07/21 00:02:50;;;;;;;13.13;11.82;;;;;;;20.17;nan;101618.13;5053382;28;20037;-70
2022/07/21 00:05:16;;;;;;;12.93;11.60;;;;;;;20.10;nan;101611.44;5051881;28;20408;-69
2022/07/21 00:07:42;;;;;;;13.95;12.65;;;;;;;20.07;nan;101603.63;5051761;28;20045;-68
2022/07/21 00:10:08;;;;;;;14.50;13.10;;;;;;;20.00;nan;101610.25;5051353;28;20049;-67
2022/07/21 00:12:33;;;;;;;14.32;12.90;;;;;;;20.05;nan;101592.16;5051583;28;20468;-69
2022/07/21 00:14:59;;;;;;;14.77;13.35;;;;;;;20.06;nan;101594.72;5051564;28;20116;-67
2022/07/21 00:17:24;;;;;;;17.15;15.27;;;;;;;19.74;nan;101538.81;5052703;28;20057;-67
2022/07/21 00:19:49;;;;;;;15.70;14.10;;;;;;;19.94;nan;101579.44;5051371;28;20477;-68
2022/07/21 00:22:15;;;;;;;16.75;13.63;;;;;;;20.03;nan;101586.91;5052570;28;20036;-71
2022/07/21 00:24:40;;;;;;;17.85;15.95;;;;;;;20.02;nan;101579.81;5053114;28;20065;-70
2022/07/21 00:27:05;;;;;;;17.70;15.57;;;;;;;19.74;nan;101538.81;5051320;28;20087;-70
2022/07/21 00:29:31;;;;;;;17.40;15.65;;;;;;;19.99;nan;101584.50;5051180;28;20033;-70
2022/07/21 00:31:56;;;;;;;18.02;15.48;;;;;;;20.01;nan;101594.16;5053058;28;20041;-68
2022/07/21 00:34:21;;;;;;;17.10;15.43;;;;;;;20.00;nan;101599.56;5052704;28;20100;-70
2022/07/21 00:36:47;;;;;;;17.67;16.08;;;;;;;19.98;nan;101598.81;5052407;28;20045;-67
2022/07/21 00:39:12;;;;;;;19.15;17.35;;;;;;;19.94;nan;101586.56;5050966;28;20435;-70
2022/07/21 00:41:37;;;;;;;18.33;16.65;;;;;;;19.64;nan;101547.38;5052387;28;20468;-67
2022/07/21 00:44:03;;;;;;;19.20;17.15;;;;;;;19.91;nan;101592.97;5052168;28;20500;-68
2022/07/21 00:46:28;;;;;;;18.23;16.25;;;;;;;19.78;nan;101565.28;5034583;28;20033;-68
2022/07/21 00:48:53;;;;;;;18.00;16.30;;;;;;;19.69;nan;101531.09;5052342;28;20037;-71
2022/07/21 00:51:19;;;;;;;19.60;17.60;;;;;;;19.67;nan;101534.81;5052410;28;20036;-69
2022/07/21 00:53:44;;;;;;;19.92;17.25;;;;;;;19.94;nan;101589.25;5051002;28;20029;-70
2022/07/21 00:56:10;;;;;;;19.50;17.48;;;;;;;19.93;nan;101593.75;5051984;28;20037;-68
2022/07/21 00:58:35;;;;;;;20.00;17.95;;;;;;;19.72;nan;101556.75;5052205;28;20472;-67
2022/07/21 01:01:01;;;;;;;20.27;18.17;;;;;;;19.74;nan;101573.53;5052218;28;20040;-68
2022/07/21 01:03:26;;;;;;;20.38;18.27;;;;;;;19.70;nan;101562.19;5052259;28;20048;-68
2022/07/21 01:05:51;;;;;;;20.40;18.30;;;;;;;19.71;nan;101574.59;5050865;28;20029;-67
2022/07/21 01:08:17;;;;;;;19.85;17.77;;;;;;;19.53;nan;101524.91;5051967;28;20055;-69
2022/07/21 01:10:43;;;;;;;22.52;20.25;;;;;;;19.83;nan;101583.69;5034110;28;20033;-68
2022/07/21 01:13:08;;;;;;;18.90;17.00;;;;;;;19.84;nan;101574.72;5051942;28;20037;-67
2022/07/21 01:15:34;;;;;;;20.48;18.52;;;;;;;19.78;nan;101583.97;5050679;28;20037;-68
2022/07/21 01:17:59;;;;;;;20.50;18.40;;;;;;;19.52;nan;101523.22;5052153;28;20033;-68
2022/07/21 01:20:26;;;;;;;20.30;18.30;;;;;;;19.78;nan;101569.75;5051622;28;20033;-67
2022/07/21 01:22:55;;;;;;;21.40;18.92;;;;;;;19.44;nan;101512.97;5051527;28;20037;-69
2022/07/21 01:25:21;;;;;;;20.95;18.95;;;;;;;19.76;nan;101559.13;5051762;28;20369;-69
2022/07/21 01:27:46;;;;;;;20.42;18.27;;;;;;;19.74;nan;101563.72;5051582;28;20037;-68
2022/07/21 01:30:12;;;;;;;21.85;19.40;;;;;;;19.70;nan;101561.34;5050915;28;20463;-69
2022/07/21 01:32:39;;;;;;;21.55;19.45;;;;;;;19.48;nan;101525.19;5033972;28;20037;-70
2022/07/21 01:35:06;;;;;;;21.17;19.00;;;;;;;19.71;nan;101568.38;5050840;28;20068;-68
2022/07/21 01:37:33;;;;;;;20.85;18.73;;;;;;;19.53;nan;101539.13;5051696;28;20091;-66
2022/07/21 01:42:43;;;;;;;21.73;19.48;;;;;;;19.42;nan;101512.19;5050850;28;20107;-69
2022/07/21 01:45:08;;;;;;;21.77;19.67;;;;;;;19.40;nan;101494.56;5050434;28;20134;-66
2022/07/21 01:47:34;;;;;;;21.95;19.75;;;;;;;19.73;nan;101545.97;5051649;28;20128;-69
2022/07/21 01:50:00;;;;;;;21.58;19.33;;;;;;;19.72;nan;101546.06;5034036;28;20446;-68
2022/07/21 01:52:25;;;;;;;21.63;19.42;;;;;;;19.38;nan;101499.09;5052848;28;20033;-69
2022/07/21 01:54:51;;;;;;;21.92;19.73;;;;;;;19.39;nan;101487.47;5055473;28;20068;-68
2022/07/21 01:57:16;;;;;;;22.73;20.25;;;;;;;19.41;nan;101497.13;5054393;28;20147;-68
2022/07/21 01:59:41;;;;;;;21.90;19.58;;;;;;;19.74;nan;101549.50;5055488;28;20071;-67
2022/07/21 02:02:07;;;;;;;23.00;20.70;;;;;;;19.73;nan;101542.47;5054317;28;20116;-67
2022/07/21 02:04:34;;;;;;;23.42;20.80;;;;;;;19.37;nan;101479.53;5053913;28;20118;-70
2022/07/21 02:07:00;;;;;;;22.80;20.60;;;;;;;19.71;nan;101545.19;5055263;28;20141;-68
2022/07/21 02:09:25;;;;;;;22.33;20.23;;;;;;;19.42;nan;101484.63;5055235;28;20140;-69
2022/07/21 02:11:50;;;;;;;22.85;20.58;;;;;;;19.67;nan;101514.31;5054480;28;20492;-70
2022/07/21 02:14:16;;;;;;;24.38;21.95;;;;;;;19.40;nan;101463.38;5055326;28;20492;-68
2022/07/21 02:16:41;;;;;;;24.15;21.75;;;;;;;19.71;nan;101525.63;5054975;28;20491;-68
2022/07/21 02:19:08;;;;;;;23.17;20.88;;;;;;;19.70;nan;101535.50;5055142;28;20052;-67
2022/07/21 02:21:33;;;;;;;24.45;21.85;;;;;;;19.43;nan;101494.38;5053660;28;20412;-68
2022/07/21 02:23:58;;;;;;;24.50;21.73;;;;;;;19.65;nan;101522.38;5053508;28;20036;-68
2022/07/21 02:26:24;;;;;;;24.75;22.25;;;;;;;19.37;nan;101474.22;5053842;28;20040;-69
2022/07/21 02:28:49;;;;;;;25.17;22.38;;;;;;;19.74;nan;101529.00;5053593;28;20403;-70
2022/07/21 02:31:14;;;;;;;25.33;22.73;;;;;;;18.83;nan;101373.34;5053869;28;20032;-68
2022/07/21 02:33:40;;;;;;;25.05;22.45;;;;;;;18.86;nan;101379.38;5054001;28;20396;-68
2022/07/21 02:36:05;;;;;;;24.05;21.55;;;;;;;19.78;nan;101527.88;5054666;28;20188;-67
2022/07/21 02:38:31;;;;;;;24.35;21.83;;;;;;;19.48;nan;101479.81;5053619;28;20048;-66
2022/07/21 02:40:56;;;;;;;26.30;23.50;;;;;;;19.71;nan;101531.84;5053393;28;20040;-69
2022/07/21 02:43:21;;;;;;;25.60;22.92;;;;;;;19.82;nan;101528.56;5053523;28;20131;-69
2022/07/21 02:45:47;;;;;;;26.42;23.65;;;;;;;19.82;nan;101526.72;5054918;28;20041;-69
2022/07/21 02:48:13;;;;;;;28.35;24.77;;;;;;;19.73;nan;101505.06;5054387;28;20052;-67
2022/07/21 02:50:41;;;;;;;25.98;23.27;;;;;;;19.45;nan;101449.75;5054536;28;20048;-68
2022/07/21 02:53:09;;;;;;;26.25;23.55;;;;;;;19.75;nan;101500.47;5053156;28;20064;-69
2022/07/21 02:55:35;;;;;;;26.17;23.67;;;;;;;19.75;nan;101500.47;5054596;28;20039;-71
2022/07/21 02:58:11;;;;;;;27.38;24.33;;;;;;;19.80;nan;101507.25;5053037;28;20037;-69
2022/07/21 03:00:40;;;;;;;24.83;21.95;;;;;;;19.51;nan;101452.91;5054603;28;20522;-70
2022/07/21 03:03:06;;;;;;;24.23;21.70;;;;;;;19.78;nan;101484.25;5052546;28;20053;-69
2022/07/21 03:05:32;;;;;;;24.88;21.58;;;;;;;19.82;nan;101502.66;5052170;28;20383;-70
2022/07/21 03:07:58;;;;;;;25.15;22.38;;;;;;;19.61;nan;101472.75;5053929;28;20045;-68
2022/07/21 03:10:23;;;;;;;24.90;22.40;;;;;;;19.79;nan;101518.06;5053213;28;20116;-69
2022/07/21 03:12:49;;;;;;;26.38;23.58;;;;;;;19.79;nan;101510.03;5053116;28;20120;-70
2022/07/21 03:15:14;;;;;;;28.17;23.27;;;;;;;19.77;nan;101502.09;5052715;28;20495;-68
2022/07/21 03:17:40;;;;;;;26.08;23.02;;;;;;;19.81;nan;101514.34;5052564;28;20473;-71
2022/07/21 03:20:05;;;;;;;25.15;22.60;;;;;;;19.84;nan;101513.28;5053826;28;20037;-69
2022/07/21 03:22:31;;;;;;;26.13;23.33;;;;;;;19.59;nan;101469.34;5053885;28;20128;-69
2022/07/21 03:24:56;;;;;;;24.35;21.77;;;;;;;19.85;nan;101515.00;5052609;28;20033;-68
2022/07/21 03:27:21;;;;;;;23.35;21.05;;;;;;;19.81;nan;101510.78;5051937;28;20072;-67
2022/07/21 03:29:47;;;;;;;23.52;21.17;;;;;;;19.59;nan;101469.34;5053779;28;20044;-69
2022/07/21 03:32:12;;;;;;;24.25;21.75;;;;;;;19.85;nan;101507.84;5052333;28;20040;-68
2022/07/21 03:34:37;;;;;;;24.77;22.27;;;;;;;19.60;nan;101460.38;5053520;28;20033;-70
2022/07/21 03:37:03;;;;;;;23.88;21.42;;;;;;;19.73;nan;101473.84;5052073;28;20041;-68
2022/07/21 03:39:28;;;;;;;25.80;23.00;;;;;;;19.60;nan;101457.72;5053761;28;20032;-70
2022/07/21 03:41:53;;;;;;;22.90;20.70;;;;;;;19.62;nan;101473.63;5053983;28;20033;-72
2022/07/21 03:44:19;;;;;;;25.42;22.65;;;;;;;19.28;nan;101416.03;5053368;28;20021;-67
2022/07/21 03:46:44;;;;;;;24.13;21.63;;;;;;;19.08;nan;101360.31;5052045;28;20035;-69
2022/07/21 03:49:10;;;;;;;26.25;22.90;;;;;;;19.89;nan;101495.16;5053449;28;20461;-68
2022/07/21 03:51:35;;;;;;;25.48;22.88;;;;;;;19.86;nan;101498.88;5053355;28;20036;-71
2022/07/21 03:54:01;;;;;;;26.35;23.55;;;;;;;19.82;nan;101507.19;5051984;28;20037;-70
2022/07/21 03:56:27;;;;;;;26.80;24.02;;;;;;;19.77;nan;101488.75;5053315;28;20037;-69
2022/07/21 03:58:52;;;;;;;27.90;25.02;;;;;;;19.84;nan;101497.25;5052049;28;20043;-68
2022/07/21 04:01:18;;;;;;;25.23;22.58;;;;;;;19.84;nan;101507.94;5053249;28;20116;-69
2022/07/21 04:03:43;;;;;;;25.52;22.90;;;;;;;19.80;nan;101493.03;5053025;28;20033;-69
2022/07/21 04:06:10;;;;;;;26.02;22.88;;;;;;;19.60;nan;101467.53;5051987;28;20037;-70
2022/07/21 04:08:37;;;;;;;26.83;23.92;;;;;;;19.89;nan;101513.84;5052789;28;20136;-69
2022/07/21 04:11:02;;;;;;;26.15;23.45;;;;;;;19.65;nan;101473.44;5053093;28;20032;-70
2022/07/21 04:13:28;;;;;;;26.50;23.75;;;;;;;19.48;nan;101447.75;5052901;28;20028;-68
2022/07/21 04:15:53;;;;;;;30.85;26.55;;;;;;;19.75;nan;101473.75;5052304;28;20472;-70
2022/07/21 04:18:18;;;;;;;27.58;24.70;;;;;;;19.88;nan;101515.66;5053024;28;20488;-70
2022/07/21 04:20:44;;;;;;;28.70;25.63;;;;;;;19.85;nan;101494.47;5051464;28;20369;-71
2022/07/21 04:23:09;;;;;;;27.38;24.67;;;;;;;19.92;nan;101511.88;5051733;28;20049;-68
2022/07/21 04:25:35;;;;;;;27.00;24.13;;;;;;;19.92;nan;101508.34;5052685;28;20033;-68
2022/07/21 04:28:01;;;;;;;28.17;25.17;;;;;;;19.96;nan;101513.41;5051177;28;20045;-69
2022/07/21 04:30:26;;;;;;;26.95;24.02;;;;;;;19.61;nan;101459.41;5051399;28;20051;-69
2022/07/21 04:32:52;;;;;;;28.23;24.40;;;;;;;19.94;nan;101523.31;5051048;28;20373;-68
2022/07/21 04:35:18;;;;;;;31.90;24.63;;;;;;;19.93;nan;101521.63;5051446;28;20086;-71
2022/07/21 04:37:43;;;;;;;28.05;25.27;;;;;;;19.90;nan;101513.78;5051161;28;20041;-69
2022/07/21 04:40:10;;;;;;;27.15;24.23;;;;;;;19.93;nan;101520.75;5034422;28;20051;-69
2022/07/21 04:42:36;;;;;;;26.70;23.83;;;;;;;19.77;nan;101501.22;5051230;28;20028;-69
2022/07/21 04:45:03;;;;;;;26.30;22.98;;;;;;;19.60;nan;101475.53;5034631;28;20044;-69
2022/07/21 04:47:28;;;;;;;26.38;23.65;;;;;;;19.54;nan;101462.56;5052293;28;20468;-69
2022/07/21 04:49:54;;;;;;;25.45;22.75;;;;;;;19.70;nan;101489.22;5052666;28;20040;-70
2022/07/21 04:52:20;;;;;;;27.58;24.25;;;;;;;19.61;nan;101482.63;5034638;28;20066;-68
2022/07/21 04:54:45;;;;;;;27.67;24.75;;;;;;;19.82;nan;101516.03;5051057;28;20028;-70
2022/07/21 04:57:10;;;;;;;33.33;25.33;;;;;;;19.84;nan;101521.28;5050993;28;20025;-68
2022/07/21 04:59:36;;;;;;;28.38;23.70;;;;;;;19.76;nan;101513.72;5052133;28;20496;-69
2022/07/21 05:02:02;;;;;;;27.30;24.40;;;;;;;19.67;nan;101516.09;5050889;28;20044;-69
2022/07/21 05:04:28;;;;;;;34.38;26.63;;;;;;;19.73;nan;101513.06;5034244;28;20040;-67
2022/07/21 05:06:53;;;;;;;43.47;27.58;;;;;;;19.43;nan;101467.69;5052143;28;20033;-69
2022/07/21 05:09:19;;;;;;;45.60;27.25;;;;;;;19.69;nan;101514.19;5050436;28;20137;-70
2022/07/21 05:11:44;;;;;;;44.60;27.95;;;;;;;19.67;nan;101512.47;5052172;28;20033;-69
2022/07/21 05:14:10;;;;;;;41.55;26.70;;;;;;;19.44;nan;101474.75;5050702;28;20060;-72
2022/07/21 05:16:35;;;;;;;43.63;25.67;;;;;;;19.44;nan;101474.75;5050702;28;20064;-69
2022/07/21 05:19:01;;;;;;;41.35;26.15;;;;;;;19.35;nan;101460.06;5050689;28;20099;-69
2022/07/21 05:21:26;;;;;;;40.95;24.45;;;;;;;19.71;nan;101525.63;5050946;28;20069;-69
2022/07/21 05:23:52;;;;;;;42.85;24.42;;;;;;;19.57;nan;101500.63;5051776;28;20037;-69
2022/07/21 05:26:17;;;;;;;44.13;25.00;;;;;;;19.69;nan;101509.72;5051737;28;20064;-68
2022/07/21 05:28:43;;;;;;;42.42;25.30;;;;;;;19.43;nan;101473.88;5055564;28;20124;-69
2022/07/21 05:31:08;;;;;;;42.72;24.50;;;;;;;19.62;nan;101497.66;5055928;28;20075;-71
2022/07/21 05:33:34;;;;;;;38.38;22.95;;;;;;;19.69;nan;101522.22;5054586;28;20025;-70
2022/07/21 05:36:00;;;;;;;42.42;23.42;;;;;;;19.73;nan;101513.06;5056082;28;20112;-70
2022/07/21 05:38:25;;;;;;;43.50;23.75;;;;;;;19.74;nan;101510.28;5054614;28;20123;-72
2022/07/21 05:40:51;;;;;;;40.88;24.63;;;;;;;19.75;nan;101504.00;5055860;28;20115;-70
2022/07/21 05:43:16;;;;;;;37.03;23.70;;;;;;;19.52;nan;101464.47;5055742;28;20047;-68
2022/07/21 05:45:41;;;;;;;35.83;23.50;;;;;;;19.84;nan;101505.28;5054327;28;20442;-69
2022/07/21 05:48:07;;;;;;;33.45;23.77;;;;;;;19.77;nan;101510.13;5055508;28;20032;-70
2022/07/21 05:50:32;;;;;;;30.30;21.42;;;;;;;19.48;nan;101465.59;5054494;28;20033;-68
2022/07/21 05:52:57;;;;;;;28.63;21.70;;;;;;;19.67;nan;101511.63;5055486;28;20055;-67
2022/07/21 05:55:23;;;;;;;35.90;21.95;;;;;;;19.65;nan;101508.16;5055716;28;20025;-69
2022/07/21 05:57:48;;;;;;;36.58;23.75;;;;;;;19.63;nan;101520.75;5055499;28;20163;-70
2022/07/21 06:00:15;;;;;;;35.70;23.60;;;;;;;19.37;nan;101476.88;5055385;28;20037;-70
2022/07/21 06:02:40;;;;;;;33.83;23.92;;;;;;;19.23;nan;101462.63;5054065;28;20029;-69
2022/07/21 06:05:08;;;;;;;38.60;23.98;;;;;;;19.46;nan;101511.09;5054097;28;20039;-71
2022/07/21 06:07:33;;;;;;;34.65;23.05;;;;;;;19.44;nan;101526.31;5055256;28;20135;-70
2022/07/21 06:10:00;;;;;;;34.78;22.75;;;;;;;19.38;nan;101523.13;5054950;28;20479;-69
2022/07/21 06:12:26;;;;;;;28.20;19.67;;;;;;;18.97;nan;101464.13;5055368;28;20115;-68
2022/07/21 06:14:51;;;;;;;32.47;21.95;;;;;;;19.21;nan;101531.22;5054812;28;20471;-70
2022/07/21 06:17:17;;;;;;;34.30;19.00;;;;;;;18.89;nan;101475.22;5054086;28;20043;-69
2022/07/21 06:19:42;;;;;;;27.83;19.33;;;;;;;18.88;nan;101478.00;5055112;28;20069;-69
2022/07/21 06:22:07;;;;;;;25.25;20.30;;;;;;;18.80;nan;101478.41;5055340;28;20083;-69
2022/07/21 06:24:33;;;;;;;28.23;20.13;;;;;;;19.06;nan;101522.28;5053786;28;20032;-70
2022/07/21 06:26:58;;;;;;;31.30;20.23;;;;;;;19.04;nan;101524.19;5054772;28;20048;-69
2022/07/21 06:29:24;;;;;;;25.92;18.08;;;;;;;18.92;nan;101488.38;5054716;28;20037;-68
2022/07/21 06:31:50;;;;;;;27.50;18.35;;;;;;;18.76;nan;101454.66;5054606;28;20369;-68
2022/07/21 06:34:15;;;;;;;26.08;18.55;;;;;;;18.88;nan;101489.53;5053617;28;20441;-69
2022/07/21 06:36:41;;;;;;;26.42;18.77;;;;;;;18.67;nan;101460.53;5054616;28;20119;-69
2022/07/21 06:39:06;;;;;;;21.65;18.15;;;;;;;18.70;nan;101481.69;5054210;28;20761;-67
2022/07/21 06:41:31;;;;;;;23.80;18.20;;;;;;;18.85;nan;101523.50;5054496;28;20381;-68
2022/07/21 06:43:57;;;;;;;21.80;16.70;;;;;;;18.63;nan;101509.63;5054563;28;20483;-67
2022/07/21 06:46:22;;;;;;;22.50;17.50;;;;;;;18.64;nan;101520.22;5053093;28;20032;-66
2022/07/21 06:48:48;;;;;;;22.20;19.20;;;;;;;18.35;nan;101488.94;5052678;28;20484;-66
2022/07/21 06:51:13;;;;;;;20.42;17.25;;;;;;;18.54;nan;101527.84;5053372;28;20476;-67
2022/07/21 06:53:38;;;;;;;19.40;16.42;;;;;;;18.30;nan;101494.50;5036550;28;20542;-65
2022/07/21 06:56:04;;;;;;;24.20;16.80;;;;;;;18.58;nan;101543.69;5036562;28;20119;-66
2022/07/21 06:58:29;;;;;;;21.38;17.02;;;;;;;18.30;nan;101504.31;5054168;28;20025;-66
2022/07/21 07:00:55;;;;;;;21.23;16.25;;;;;;;18.45;nan;101552.31;5054177;28;20036;-68
2022/07/21 07:03:20;;;;;;;18.73;16.38;;;;;;;18.40;nan;101551.69;5052971;28;20037;-66
2022/07/21 07:05:47;;;;;;;17.48;15.55;;;;;;;18.37;nan;101554.53;5054089;28;20044;-67
2022/07/21 07:08:13;;;;;;;19.92;16.45;;;;;;;18.43;nan;101558.66;5035746;28;20123;-72
2022/07/21 07:10:40;;;;;;;17.58;15.70;;;;;;;18.43;nan;101559.53;5052925;28;20314;-70
2022/07/21 07:13:05;;;;;;;19.23;14.27;;;;;;;18.42;nan;101555.13;5053847;28;20056;-66
2022/07/21 07:15:31;;;;;;;16.02;13.85;;;;;;;18.38;nan;101555.41;5051935;28;20057;-64
2022/07/21 07:17:56;;;;;;;16.08;14.20;;;;;;;18.33;nan;101563.63;5053702;28;20404;-63
2022/07/21 07:20:21;;;;;;;16.80;15.02;;;;;;;18.36;nan;101570.59;5053892;28;20091;-65
2022/07/21 07:22:47;;;;;;;17.25;15.30;;;;;;;18.11;nan;101524.88;5053940;28;20060;-60
2022/07/21 07:25:16;;;;;;;16.92;15.23;;;;;;;17.99;nan;101505.94;5053755;28;20037;-59
2022/07/21 07:27:42;;;;;;;20.38;17.30;;;;;;;18.18;nan;101551.13;5052421;28;20037;-61
2022/07/21 07:30:08;;;;;;;23.17;17.65;;;;;;;18.09;nan;101554.28;5053459;28;20041;-60
2022/07/21 07:32:33;;;;;;;23.77;20.02;;;;;;;18.18;nan;101558.25;5053494;28;20077;-60
2022/07/21 07:34:58;;;;;;;23.35;18.38;;;;;;;18.14;nan;101565.53;5053753;28;20041;-60
2022/07/21 07:37:23;;;;;;;20.73;17.67;;;;;;;17.90;nan;101527.72;5052926;28;20033;-59
2022/07/21 07:39:49;;;;;;;26.27;19.45;;;;;;;17.77;nan;101510.66;5053139;28;20111;-60
2022/07/21 07:42:14;;;;;;;21.30;18.48;;;;;;;17.46;nan;101467.84;5053417;28;20040;-59
2022/07/21 07:44:39;;;;;;;21.60;18.45;;;;;;;17.99;nan;101575.19;5035374;28;20532;-59
2022/07/21 07:47:05;;;;;;;21.55;16.48;;;;;;;18.05;nan;101570.47;5051969;28;20043;-60
2022/07/21 07:49:31;;;;;;;17.98;15.90;;;;;;;17.72;nan;101515.34;5053192;28;20039;-60
2022/07/21 07:51:56;;;;;;;18.30;14.55;;;;;;;17.95;nan;101568.28;5050631;28;20526;-60
2022/07/21 07:54:22;;;;;;;17.90;15.35;;;;;;;17.66;nan;101506.81;5050760;28;20048;-61
2022/07/21 07:56:47;;;;;;;21.33;16.08;;;;;;;17.73;nan;101518.88;5052241;28;20040;-59
2022/07/21 07:59:12;;;;;;;19.75;17.50;;;;;;;18.02;nan;101574.16;5052289;28;20029;-59
2022/07/21 08:01:38;;;;;;;22.33;17.77;;;;;;;17.68;nan;101520.91;5052236;28;20404;-62
2022/07/21 08:04:03;;;;;;;24.27;19.08;;;;;;;17.96;nan;101571.81;5052540;28;20120;-63
2022/07/21 08:06:29;;;;;;;24.38;18.23;;;;;;;17.80;nan;101558.44;5052168;28;20039;-63
2022/07/21 08:08:54;;;;;;;26.42;17.70;;;;;;;17.85;nan;101561.72;5051859;28;20053;-59
2022/07/21 08:11:19;;;;;;;25.13;19.70;;;;;;;17.88;nan;101574.88;5052407;28;20033;-61
2022/07/21 08:13:45;;;;;;;19.48;16.70;;;;;;;17.89;nan;101584.56;5051854;28;20044;-62
2022/07/21 08:16:12;;;;;;;22.02;16.08;;;;;;;17.59;nan;101538.22;5052156;28;20093;-63
2022/07/21 08:18:37;;;;;;;22.35;15.48;;;;;;;17.79;nan;101571.81;5052304;28;20044;-56
2022/07/21 08:21:03;;;;;;;24.70;15.45;;;;;;;17.72;nan;101560.59;5051968;28;20391;-61
2022/07/21 08:23:28;;;;;;;20.58;14.82;;;;;;;17.57;nan;101536.56;5050710;28;20060;-62
2022/07/21 08:25:53;;;;;;;20.70;16.15;;;;;;;17.95;nan;101584.25;5052098;28;20033;-61
2022/07/21 08:28:18;;;;;;;31.08;17.90;;;;;;;17.95;nan;101588.72;5050652;28;20040;-59
2022/07/21 08:30:44;;;;;;;19.30;16.23;;;;;;;17.96;nan;101588.66;5051631;28;20051;-62
2022/07/21 08:33:10;;;;;;;25.23;17.23;;;;;;;17.61;nan;101530.13;5051775;28;20071;-61
2022/07/21 08:35:35;;;;;;;20.55;16.27;;;;;;;17.93;nan;101588.81;5051621;28;20400;-61
2022/07/21 08:38:04;;;;;;;22.73;16.02;;;;;;;17.73;nan;101556.16;5052005;28;20041;-58
2022/07/21 08:40:31;;;;;;;19.80;16.98;;;;;;;17.90;nan;101593.44;5052321;28;20183;-60
2022/07/21 08:42:57;;;;;;;23.42;16.75;;;;;;;17.85;nan;101604.34;5051692;28;20555;-62
2022/07/21 08:45:23;;;;;;;22.05;15.10;;;;;;;17.84;nan;101593.75;5034403;28;20079;-61
2022/07/21 08:47:52;;;;;;;24.25;16.38;;;;;;;17.50;nan;101554.63;5052301;28;20044;-58
2022/07/21 08:50:18;;;;;;;24.20;16.15;;;;;;;17.90;nan;101612.94;5052356;28;20108;-63
2022/07/21 08:52:43;;;;;;;19.65;15.68;;;;;;;17.76;nan;101550.66;5050511;28;20116;-60
2022/07/21 08:55:08;;;;;;;26.73;16.10;;;;;;;17.91;nan;101548.09;5052377;28;20036;-63
2022/07/21 08:57:37;;;;;;;21.23;14.52;;;;;;;18.19;nan;101592.81;5052338;28;20033;-64
2022/07/21 09:00:03;;;;;;;18.05;13.57;;;;;;;18.05;nan;101555.34;5050944;28;20086;-61
2022/07/21 09:02:31;;;;;;;17.05;12.43;;;;;;;18.01;nan;101553.78;5050835;28;20029;-61
2022/07/21 09:04:56;;;;;;;18.33;12.30;;;;;;;18.19;nan;101579.47;5050798;28;20068;-62
2022/07/21 09:07:23;;;;;;;12.90;11.32;;;;;;;18.29;nan;101598.53;5052140;28;20496;-61
2022/07/21 09:10:00;;;;;;;14.50;11.55;;;;;;;18.17;nan;101612.47;5050537;28;20037;-61
2022/07/21 09:12:26;;;;;;;16.95;10.98;;;;;;;17.83;nan;101568.91;5051835;28;20059;-63
2022/07/21 09:14:52;;;;;;;14.85;10.48;;;;;;;17.85;nan;101572.38;5050870;28;20092;-63
2022/07/21 09:17:18;;;;;;;17.80;10.68;;;;;;;18.13;nan;101618.91;5050745;28;20067;-62
2022/07/21 09:19:46;;;;;;;13.90;9.55;;;;;;;18.12;nan;101603.88;5050396;28;20060;-65
2022/07/21 09:22:18;;;;;;;12.30;9.18;;;;;;;18.13;nan;101635.75;5050686;28;20452;-63
2022/07/21 09:24:48;;;;;;;16.27;10.15;;;;;;;18.19;nan;101618.59;5051648;28;20025;-61
2022/07/21 09:27:15;;;;;;;12.40;8.45;;;;;;;18.13;nan;101600.25;5051801;28;20491;-60
2022/07/21 09:29:47;;;;;;;11.25;8.80;;;;;;;18.22;nan;101621.09;5050099;28;20052;-60
2022/07/21 09:32:15;;;;;;;12.18;8.40;;;;;;;18.24;nan;101627.22;5049951;28;20566;-59
2022/07/21 09:34:40;;;;;;;10.25;6.95;;;;;;;17.97;nan;101582.41;5050150;28;20024;-62
2022/07/21 09:37:08;;;;;;;7.30;6.35;;;;;;;17.92;nan;101583.59;5050397;28;20487;-59
2022/07/21 09:39:40;;;;;;;6.30;5.32;;;;;;;18.14;nan;101637.47;5049944;28;20039;-65
2022/07/21 09:42:34;;;;;;;8.48;5.63;;;;;;;18.12;nan;101634.03;5051646;28;20438;-59
2022/07/21 09:45:11;;;;;;;7.68;5.88;;;;;;;18.11;nan;101631.44;5049113;28;20041;-59
2022/07/21 09:47:38;;;;;;;6.70;6.00;;;;;;;18.00;nan;101626.66;5048434;28;20453;-56
2022/07/21 09:50:05;;;;;;;7.97;5.40;;;;;;;17.78;nan;101605.56;5048873;28;20522;-57
2022/07/21 09:52:36;;;;;;;8.55;6.38;;;;;;;17.92;nan;101642.19;5048823;28;20044;-61
2022/07/21 09:55:10;;;;;;;6.57;5.85;;;;;;;17.61;nan;101583.38;5049654;28;20110;-61
2022/07/21 09:57:36;;;;;;;8.27;5.75;;;;;;;17.87;nan;101634.41;5046324;28;20558;-61
2022/07/21 10:00:07;;;;;;;5.15;4.75;;;;;;;17.80;nan;101637.47;5044035;28;20768;-59
2022/07/21 10:02:34;;;;;;;5.75;5.10;;;;;;;17.48;nan;101588.44;5049002;28;20373;-61
2022/07/21 10:05:14;;;;;;;4.97;4.30;;;;;;;17.63;nan;101632.13;5047989;28;20033;-61
2022/07/21 10:07:42;;;;;;;6.75;4.82;;;;;;;17.55;nan;101624.47;5049037;28;20114;-58
2022/07/21 10:10:08;;;;;;;7.03;5.10;;;;;;;17.62;nan;101633.91;5048847;28;20411;-64
2022/07/21 10:12:34;;;;;;;7.88;5.85;;;;;;;17.51;nan;101606.06;5047960;28;20029;-63
2022/07/21 10:15:00;;;;;;;5.97;5.20;;;;;;;17.50;nan;101606.97;5052372;28;20040;-62
2022/07/21 10:17:26;;;;;;;6.55;5.90;;;;;;;17.56;nan;101614.69;5053249;28;20040;-61
2022/07/21 10:20:07;;;;;;;10.35;5.50;;;;;;;17.89;nan;101663.66;5054990;28;20033;-63
2022/07/21 10:22:54;;;;;;;10.50;5.38;;;;;;;17.96;nan;101657.94;5052980;28;20052;-60
2022/07/21 10:25:21;;;;;;;6.70;5.97;;;;;;;17.90;nan;101625.41;5053576;28;20040;-60
2022/07/21 10:28:23;;;;;;;7.38;5.57;;;;;;;18.24;nan;101660.03;5052530;28;20392;-60
2022/07/21 10:30:56;;;;;;;6.65;5.00;;;;;;;18.03;nan;101607.88;5011659;28;20030;-59
2022/07/21 10:33:45;;;;;;;9.73;4.97;;;;;;;18.40;nan;101663.66;5043273;28;20197;-59
2022/07/21 10:36:28;;;;;;;5.82;3.90;;;;;;;18.38;nan;101660.22;5047046;28;20045;-60
2022/07/21 10:39:06;;;;;;;5.82;4.18;;;;;;;18.48;nan;101665.91;5053285;28;20530;-60
2022/07/21 10:41:59;;;;;;;3.72;3.20;;;;;;;18.19;nan;101616.78;5053443;28;20032;-61
2022/07/21 10:44:27;;;;;;;4.05;2.95;;;;;;;18.46;nan;101671.34;5053525;28;20025;-60
2022/07/21 10:47:05;;;;;;;3.10;2.63;;;;;;;18.43;nan;101660.84;5053210;28;20388;-64
2022/07/21 10:50:01;;;;;;;4.85;2.50;;;;;;;18.45;nan;101660.75;5052348;28;20103;-61
2022/07/21 10:52:35;;;;;;;5.15;2.83;;;;;;;18.40;nan;101671.66;5051792;28;20521;-61
2022/07/21 10:55:09;;;;;;;3.25;2.47;;;;;;;18.42;nan;101666.22;5053368;28;20056;-61
2022/07/21 10:57:35;;;;;;;6.45;2.20;;;;;;;18.42;nan;101659.09;5051770;28;20041;-62
2022/07/21 11:00:19;;;;;;;4.32;2.40;;;;;;;18.40;nan;101673.44;5052874;28;20039;-62
2022/07/21 11:02:59;;;;;;;5.22;2.03;;;;;;;18.22;nan;101650.41;5052828;28;20033;-62
2022/07/21 11:05:27;;;;;;;3.78;1.77;;;;;;;18.39;nan;101677.91;5053044;28;20021;-63
2022/07/21 11:08:11;;;;;;;4.72;1.92;;;;;;;18.05;nan;101627.28;5051643;28;20472;-62
2022/07/21 11:10:38;;;;;;;2.83;1.73;;;;;;;18.10;nan;101645.69;5052941;28;20512;-59
2022/07/21 11:13:03;;;;;;;4.38;2.17;;;;;;;18.29;nan;101684.69;5052901;28;20044;-64
2022/07/21 11:15:50;;;;;;;3.80;2.42;;;;;;;18.33;nan;101690.72;5052015;28;20036;-63
2022/07/21 11:18:20;;;;;;;6.65;2.80;;;;;;;18.07;nan;101630.72;5052965;28;20067;-62
2022/07/21 11:21:14;;;;;;;4.03;2.92;;;;;;;18.41;nan;101689.38;5051634;28;20450;-64
2022/07/21 11:23:43;;;;;;;7.32;2.88;;;;;;;18.40;nan;101694.78;5052800;28;20492;-65
2022/07/21 11:26:09;;;;;;;6.78;3.10;;;;;;;17.95;nan;101642.88;5050606;28;20124;-62
2022/07/21 11:28:34;;;;;;;7.90;4.10;;;;;;;18.20;nan;101690.47;5051467;28;20028;-63